Time;durP1;ratioP1;P1;durP2;ratioP2;P2;SDS_P1;SDS_P2;PMS_P1;PMS_P2;Temp;Humidity;BMP_temperature;BMP_pressure;BME280_temperature;BME280_humidity;BME280_pressure;Samples;Min_cycle;Max_cycle;Signal;HPM_P1;HPM_P2
2021/05/23 00:00:04;;;;;;;59.90;34.63;;;;;;;8.12;100.00;100833.59;5104332;28;20439;-66
2021/05/23 00:02:30;;;;;;;59.83;35.60;;;;;;;8.14;100.00;100838.88;5107683;28;20024;-66
2021/05/23 00:04:55;;;;;;;60.55;35.35;;;;;;;8.15;100.00;100838.03;5104110;28;20020;-67
2021/05/23 00:07:26;;;;;;;65.68;37.25;;;;;;;8.16;100.00;100838.03;5106934;28;20031;-66
2021/05/23 00:09:53;;;;;;;66.45;37.53;;;;;;;8.14;100.00;100839.78;5104445;28;20540;-67
2021/05/23 00:12:19;;;;;;;67.82;37.70;;;;;;;8.14;100.00;100839.78;5105093;28;20459;-65
2021/05/23 00:14:44;;;;;;;67.25;37.72;;;;;;;8.15;100.00;100841.53;5105533;28;20058;-65
2021/05/23 00:17:10;;;;;;;70.32;38.60;;;;;;;8.16;100.00;100837.16;5105223;28;20477;-65
2021/05/23 00:19:35;;;;;;;67.28;36.33;;;;;;;8.14;100.00;100839.78;5106475;27;20130;-66
2021/05/23 00:22:00;;;;;;;65.60;37.80;;;;;;;8.13;100.00;100843.28;5103809;28;20024;-66
2021/05/23 00:24:26;;;;;;;68.60;36.72;;;;;;;8.12;100.00;100836.22;5103917;28;20047;-65
2021/05/23 00:26:52;;;;;;;67.15;38.35;;;;;;;8.11;100.00;100842.38;5106393;28;20016;-65
2021/05/23 00:29:18;;;;;;;71.93;39.05;;;;;;;8.11;100.00;100839.75;5104792;28;20069;-67
2021/05/23 00:31:44;;;;;;;75.40;39.03;;;;;;;8.11;100.00;100842.38;5105369;28;20035;-66
2021/05/23 00:34:09;;;;;;;74.47;39.15;;;;;;;8.10;100.00;100842.34;5105810;28;20102;-66
2021/05/23 00:36:34;;;;;;;81.15;43.05;;;;;;;8.10;100.00;100842.34;5104042;28;20103;-66
2021/05/23 00:39:00;;;;;;;80.72;42.00;;;;;;;8.11;100.00;100849.38;5106773;28;20057;-66
2021/05/23 00:41:26;;;;;;;81.32;42.33;;;;;;;8.10;100.00;100842.34;5103416;28;20020;-68
2021/05/23 00:43:52;;;;;;;81.93;43.03;;;;;;;8.11;100.00;100844.09;5106347;28;20482;-67
2021/05/23 00:46:17;;;;;;;82.32;42.03;;;;;;;8.11;100.00;100841.47;5102754;28;20036;-68
2021/05/23 00:48:42;;;;;;;81.90;41.90;;;;;;;8.11;100.00;100849.38;5104941;28;20527;-67
2021/05/23 00:51:08;;;;;;;82.82;42.58;;;;;;;8.11;100.00;100844.09;5106070;28;20418;-68
2021/05/23 00:53:33;;;;;;;88.43;45.25;;;;;;;8.11;100.00;100846.72;5103629;28;20020;-67
2021/05/23 00:56:01;;;;;;;90.00;44.67;;;;;;;8.12;100.00;100851.16;5106460;28;20108;-67
2021/05/23 00:58:26;;;;;;;93.18;44.05;;;;;;;8.14;100.00;100846.78;5103342;28;20347;-67
2021/05/23 01:00:54;;;;;;;91.88;45.15;;;;;;;8.15;100.00;100851.19;5105657;28;20034;-67
2021/05/23 01:03:28;;;;;;;96.07;45.70;;;;;;;8.16;100.00;100856.47;5103778;28;20463;-67
2021/05/23 01:05:56;;;;;;;94.30;45.40;;;;;;;8.17;100.00;100852.13;5106317;28;20043;-67
2021/05/23 01:08:23;;;;;;;104.45;49.10;;;;;;;8.18;100.00;100856.50;5103443;28;20081;-67
2021/05/23 01:11:03;;;;;;;94.72;44.50;;;;;;;8.18;100.00;100856.50;5105174;28;20024;-67
2021/05/23 01:13:37;;;;;;;98.47;46.00;;;;;;;8.20;100.00;100860.06;5098718;28;20027;-65
2021/05/23 01:16:18;;;;;;;104.90;46.42;;;;;;;8.21;100.00;100861.81;5099973;28;20032;-65
2021/05/23 01:19:14;;;;;;;101.85;47.67;;;;;;;8.19;100.00;100863.53;5104527;28;20024;-65
2021/05/23 01:21:44;;;;;;;99.68;46.10;;;;;;;8.23;100.00;100864.47;5101009;28;20063;-74
2021/05/23 01:24:40;;;;;;;100.93;45.78;;;;;;;8.22;100.00;100860.94;5104918;28;20474;-77
2021/05/23 01:27:08;;;;;;;106.70;47.83;;;;;;;8.22;100.00;100860.94;5100214;28;20374;-73
2021/05/23 01:29:34;;;;;;;106.25;47.50;;;;;;;8.23;100.00;100865.38;5106167;28;20035;-74
2021/05/23 01:32:00;;;;;;;103.63;47.08;;;;;;;8.21;100.00;100861.81;5102222;28;20036;-75
2021/05/23 01:34:26;;;;;;;104.40;49.08;;;;;;;8.20;100.00;100871.47;5105614;28;20478;-76
2021/05/23 01:36:55;;;;;;;103.65;48.63;;;;;;;8.22;100.00;100875.88;5102928;28;20100;-75
2021/05/23 01:39:21;;;;;;;99.90;46.88;;;;;;;8.23;100.00;100872.34;5104955;28;20024;-75
2021/05/23 01:41:47;;;;;;;106.95;46.47;;;;;;;8.24;100.00;100867.09;5104043;28;20028;-73
2021/05/23 01:44:13;;;;;;;104.03;48.63;;;;;;;8.24;100.00;100859.22;5103548;28;20016;-72
2021/05/23 01:46:39;;;;;;;100.32;47.13;;;;;;;8.26;100.00;100861.91;5104576;28;20023;-74
2021/05/23 01:49:05;;;;;;;104.15;47.88;;;;;;;8.25;100.00;100860.13;5102433;28;20494;-77
2021/05/23 01:51:31;;;;;;;106.63;48.63;;;;;;;8.25;100.00;100861.00;5105423;28;20023;-73
2021/05/23 01:53:56;;;;;;;103.32;47.78;;;;;;;8.23;100.00;100862.72;5102075;28;20095;-74
2021/05/23 01:56:22;;;;;;;104.70;46.97;;;;;;;8.22;100.00;100863.59;5105093;28;20077;-79
2021/05/23 01:58:47;;;;;;;103.88;47.28;;;;;;;8.23;100.00;100870.63;5103227;28;20027;-78
2021/05/23 02:01:12;;;;;;;101.25;48.45;;;;;;;8.19;100.00;100871.44;5103554;28;20031;-71
2021/05/23 02:03:38;;;;;;;98.78;46.30;;;;;;;8.18;100.00;100877.56;5104541;28;20025;-79
2021/05/23 02:06:04;;;;;;;104.70;47.33;;;;;;;8.16;100.00;100874.03;5101867;28;20173;-81
2021/05/23 02:08:32;;;;;;;101.35;47.47;;;;;;;8.13;100.00;100877.50;5104462;28;20025;-81
2021/05/23 02:11:05;;;;;;;102.65;46.58;;;;;;;8.14;100.00;100886.28;5097848;28;20032;-78
2021/05/23 02:13:31;;;;;;;102.88;48.15;;;;;;;8.13;100.00;100874.00;5105096;28;20026;-81
2021/05/23 02:15:57;;;;;;;98.82;47.05;;;;;;;8.11;100.00;100875.69;5101621;28;20471;-81
2021/05/23 02:18:22;;;;;;;100.82;47.97;;;;;;;8.09;100.00;100867.78;5104420;28;20039;-76
2021/05/23 02:20:47;;;;;;;101.72;47.10;;;;;;;8.09;100.00;100882.69;5102448;28;20549;-81
2021/05/23 02:23:19;;;;;;;98.43;45.75;;;;;;;8.09;100.00;100877.44;5102917;28;20111;-81
2021/05/23 02:25:46;;;;;;;100.72;47.47;;;;;;;8.08;100.00;100875.66;5103332;28;20042;-80
2021/05/23 02:28:13;;;;;;;99.28;47.65;;;;;;;8.06;100.00;100872.13;5102905;28;20386;-81
2021/05/23 02:30:43;;;;;;;104.75;47.75;;;;;;;8.06;100.00;100866.88;5104004;28;20024;-81
2021/05/23 02:33:11;;;;;;;101.45;48.10;;;;;;;8.03;100.00;100873.84;5102047;28;20028;-79
2021/05/23 02:35:39;;;;;;;102.85;48.97;;;;;;;8.03;100.00;100879.09;5104424;27;20024;-81
2021/05/23 02:38:06;;;;;;;108.20;50.05;;;;;;;8.01;100.00;100883.47;5101235;28;20031;-81
2021/05/23 02:40:32;;;;;;;100.82;48.70;;;;;;;8.02;100.00;100882.63;5104984;28;20020;-81
2021/05/23 02:42:59;;;;;;;109.05;51.22;;;;;;;8.05;100.00;100886.16;5097515;28;20020;-65
2021/05/23 02:45:25;;;;;;;106.97;49.90;;;;;;;8.05;100.00;100884.38;5104157;28;20031;-66
2021/05/23 02:47:51;;;;;;;99.50;47.53;;;;;;;8.07;100.00;100881.78;5102098;28;20027;-65
2021/05/23 02:50:23;;;;;;;102.20;48.15;;;;;;;8.08;100.00;100880.91;5103181;28;20387;-65
2021/05/23 02:52:48;;;;;;;100.00;46.80;;;;;;;8.08;100.00;100880.91;5102387;28;20026;-65
2021/05/23 02:55:16;;;;;;;98.55;44.92;;;;;;;8.08;100.00;100887.09;5102492;28;20028;-65
2021/05/23 02:57:42;;;;;;;100.22;47.03;;;;;;;8.08;100.00;100891.47;5103532;28;20034;-64
2021/05/23 03:00:11;;;;;;;96.47;46.42;;;;;;;8.11;100.00;100896.75;5101711;28;20029;-65
2021/05/23 03:02:37;;;;;;;92.93;46.13;;;;;;;8.07;100.00;100885.31;5103647;28;20023;-65
2021/05/23 03:05:04;;;;;;;96.25;46.72;;;;;;;8.10;100.00;100892.38;5101382;28;20047;-65
2021/05/23 03:07:33;;;;;;;89.40;44.55;;;;;;;8.10;100.00;100895.00;5104492;28;20024;-67
2021/05/23 03:09:58;;;;;;;89.35;44.35;;;;;;;8.10;100.00;100893.25;5096684;28;20024;-67
2021/05/23 03:12:23;;;;;;;86.07;44.92;;;;;;;8.09;100.00;100893.22;5104048;28;20039;-66
2021/05/23 03:14:49;;;;;;;84.18;42.30;;;;;;;8.09;100.00;100894.09;5100843;28;20071;-67
2021/05/23 03:17:14;;;;;;;95.70;46.63;;;;;;;8.08;100.00;100897.63;5102275;28;20016;-67
2021/05/23 03:19:39;;;;;;;82.55;41.30;;;;;;;8.10;100.00;100895.88;5104785;28;20020;-67
2021/05/23 03:22:06;;;;;;;82.18;43.20;;;;;;;8.11;100.00;100907.28;5104775;28;20051;-67
2021/05/23 03:24:33;;;;;;;84.10;41.97;;;;;;;8.09;100.00;100903.78;5108589;28;20405;-67
2021/05/23 03:26:58;;;;;;;85.22;43.72;;;;;;;8.07;100.00;100906.38;5100804;28;20463;-66
2021/05/23 03:29:24;;;;;;;78.20;41.70;;;;;;;8.07;100.00;100913.38;5107965;28;20164;-66
2021/05/23 03:31:49;;;;;;;78.88;40.92;;;;;;;8.10;100.00;100916.09;5106250;28;20362;-66
2021/05/23 03:34:15;;;;;;;80.95;42.35;;;;;;;8.09;100.00;100915.19;5106315;28;20036;-66
2021/05/23 03:36:40;;;;;;;75.22;41.42;;;;;;;8.08;100.00;100917.78;5107266;28;20024;-65
2021/05/23 03:39:06;;;;;;;75.70;41.67;;;;;;;8.10;100.00;100916.09;5105356;28;20352;-67
2021/05/23 03:41:31;;;;;;;76.13;39.15;;;;;;;8.12;100.00;100916.97;5108368;28;20461;-66
2021/05/23 03:43:56;;;;;;;74.07;39.22;;;;;;;8.12;100.00;100919.59;5094660;28;20067;-67
2021/05/23 03:46:22;;;;;;;68.75;38.00;;;;;;;8.15;100.00;100917.03;5107132;28;20024;-65
2021/05/23 03:48:47;;;;;;;72.68;38.80;;;;;;;8.15;100.00;100920.53;5106055;28;20094;-67
2021/05/23 03:51:12;;;;;;;69.80;38.05;;;;;;;8.14;100.00;100918.78;5105723;28;20099;-66
2021/05/23 03:53:38;;;;;;;77.30;38.97;;;;;;;8.14;100.00;100928.41;5107289;28;20034;-66
2021/05/23 03:56:03;;;;;;;74.68;39.65;;;;;;;8.12;100.00;100925.75;5104282;28;20024;-66
2021/05/23 03:58:29;;;;;;;70.68;38.08;;;;;;;8.16;100.00;100922.31;5100276;28;20451;-67
2021/05/23 04:00:54;;;;;;;74.03;38.97;;;;;;;8.15;100.00;100924.91;5107251;28;20024;-66
2021/05/23 04:03:22;;;;;;;69.85;38.92;;;;;;;8.15;100.00;100930.19;5105215;28;20028;-67
2021/05/23 04:05:48;;;;;;;66.38;37.35;;;;;;;8.15;100.00;100928.44;5105866;28;20536;-66
2021/05/23 04:08:13;;;;;;;64.15;37.88;;;;;;;8.14;100.00;100931.94;5106656;28;20103;-66
2021/05/23 04:10:43;;;;;;;66.75;37.85;;;;;;;8.17;100.00;100939.00;5104540;28;20084;-67
2021/05/23 04:13:10;;;;;;;64.38;36.47;;;;;;;8.14;100.00;100944.22;5107043;28;20111;-65
2021/05/23 04:15:35;;;;;;;62.42;35.80;;;;;;;8.13;100.00;100942.47;5104216;28;20031;-66
2021/05/23 04:18:01;;;;;;;60.00;35.50;;;;;;;8.12;100.00;100949.44;5107343;28;20035;-67
2021/05/23 04:20:27;;;;;;;60.97;35.78;;;;;;;8.13;100.00;100947.72;5103771;28;20067;-66
2021/05/23 04:22:54;;;;;;;59.58;32.22;;;;;;;8.13;100.00;100947.72;5106438;28;20020;-66
2021/05/23 04:25:20;;;;;;;56.58;34.63;;;;;;;8.10;100.00;100958.22;5105247;28;20019;-67
2021/05/23 04:27:47;;;;;;;51.55;29.73;;;;;;;8.11;100.00;100952.97;5105282;28;20463;-67
2021/05/23 04:30:15;;;;;;;47.05;28.50;;;;;;;8.12;100.00;100973.16;5105905;28;20551;-65
2021/05/23 04:32:41;;;;;;;51.33;29.95;;;;;;;8.11;100.00;100957.31;5103729;28;20032;-67
2021/05/23 04:35:08;;;;;;;47.95;28.05;;;;;;;8.08;100.00;100974.00;5106309;28;20020;-67
2021/05/23 04:37:34;;;;;;;46.90;25.45;;;;;;;8.06;100.00;100978.31;5103839;28;20407;-66
2021/05/23 04:39:59;;;;;;;46.97;26.15;;;;;;;8.08;100.00;100974.00;5106970;28;20019;-66
2021/05/23 04:42:25;;;;;;;44.05;24.50;;;;;;;8.07;100.00;100979.19;5104228;28;20109;-66
2021/05/23 04:44:50;;;;;;;43.95;23.75;;;;;;;8.11;100.00;100976.66;5105802;28;20423;-65
2021/05/23 04:47:16;;;;;;;43.80;23.75;;;;;;;8.13;100.00;100976.69;5104975;28;20152;-65
2021/05/23 04:49:41;;;;;;;46.97;22.98;;;;;;;8.11;100.00;100981.94;5104366;28;20032;-65
2021/05/23 04:52:08;;;;;;;42.38;23.10;;;;;;;8.13;100.00;100982.84;5106127;28;20032;-65
2021/05/23 04:54:36;;;;;;;42.10;22.65;;;;;;;8.14;100.00;100997.78;5103089;28;20028;-65
2021/05/23 04:57:01;;;;;;;43.13;20.58;;;;;;;8.17;100.00;100981.16;5107053;28;20389;-65
2021/05/23 04:59:27;;;;;;;38.65;20.13;;;;;;;8.13;100.00;100993.38;5103500;28;20020;-65
2021/05/23 05:01:52;;;;;;;39.47;21.45;;;;;;;8.17;100.00;100997.81;5106053;28;20024;-65
2021/05/23 05:04:18;;;;;;;39.60;20.25;;;;;;;8.16;100.00;100989.91;5104487;28;20027;-71
2021/05/23 05:06:43;;;;;;;35.03;16.42;;;;;;;8.22;100.00;101003.16;5104075;28;20111;-68
2021/05/23 05:09:08;;;;;;;37.97;18.55;;;;;;;8.15;100.00;101004.78;5106049;28;20470;-77
2021/05/23 05:11:34;;;;;;;38.80;16.95;;;;;;;8.19;100.00;101008.38;5102863;28;20420;-75
2021/05/23 05:13:59;;;;;;;34.30;15.82;;;;;;;8.20;100.00;101008.41;5106321;28;20019;-78
2021/05/23 05:16:24;;;;;;;34.75;15.65;;;;;;;8.20;100.00;101007.53;5102194;28;20042;-75
2021/05/23 05:18:50;;;;;;;31.85;14.23;;;;;;;8.24;100.00;101009.31;5105267;28;20467;-80
2021/05/23 05:21:15;;;;;;;36.88;15.85;;;;;;;8.20;100.00;101008.41;5104307;28;20043;-74
2021/05/23 05:23:41;;;;;;;31.88;14.73;;;;;;;8.24;100.00;101008.44;5103541;28;20081;-79
2021/05/23 05:26:06;;;;;;;31.30;13.57;;;;;;;8.22;100.00;101016.34;5106301;28;20450;-73
2021/05/23 05:28:31;;;;;;;31.48;15.20;;;;;;;8.19;100.00;101004.00;5102482;28;20028;-79
2021/05/23 05:30:57;;;;;;;33.90;14.23;;;;;;;8.19;100.00;101024.19;5105676;28;20027;-76
2021/05/23 05:33:22;;;;;;;32.35;14.10;;;;;;;8.19;100.00;101008.38;5101569;28;20070;-77
2021/05/23 05:35:48;;;;;;;30.70;13.25;;;;;;;8.16;100.00;101018.88;5104022;28;20051;-68
2021/05/23 05:38:14;;;;;;;33.08;13.52;;;;;;;8.15;100.00;101022.34;5105282;28;20031;-82
2021/05/23 05:40:39;;;;;;;31.85;13.07;;;;;;;8.18;100.00;101025.03;5103909;28;20020;-73
2021/05/23 05:43:05;;;;;;;29.65;12.07;;;;;;;8.12;100.00;101031.09;5105701;28;20019;-72
2021/05/23 05:45:30;;;;;;;31.80;12.48;;;;;;;8.09;100.00;101027.53;5103236;28;20036;-77
2021/05/23 05:47:55;;;;;;;30.33;11.30;;;;;;;8.06;100.00;101027.47;5104872;28;20039;-71
2021/05/23 05:50:21;;;;;;;30.20;11.10;;;;;;;8.03;100.00;101034.44;5103207;28;20024;-70
2021/05/23 05:52:46;;;;;;;32.50;11.20;;;;;;;8.06;100.00;101033.63;5103759;28;20024;-78
2021/05/23 05:55:13;;;;;;;31.95;10.60;;;;;;;8.05;100.00;101052.03;5092750;28;20023;-65
2021/05/23 05:57:38;;;;;;;32.35;11.20;;;;;;;8.11;100.00;101046.84;5093069;28;20024;-77
2021/05/23 06:00:05;;;;;;;30.73;10.75;;;;;;;8.13;100.00;101047.78;5092356;28;20092;-79
2021/05/23 06:02:30;;;;;;;28.52;10.45;;;;;;;8.18;100.00;101040.84;5092921;28;20067;-75
2021/05/23 06:04:55;;;;;;;28.73;9.57;;;;;;;8.24;100.00;101038.31;5090840;28;20958;-80
2021/05/23 06:07:21;;;;;;;26.90;9.00;;;;;;;8.23;100.00;101039.19;5092517;28;20039;-66
2021/05/23 06:09:46;;;;;;;28.38;9.50;;;;;;;8.26;100.00;101054.16;5091687;28;20032;-65
2021/05/23 06:12:12;;;;;;;28.17;8.95;;;;;;;8.21;100.00;101048.78;5090296;28;20043;-67
2021/05/23 06:14:38;;;;;;;28.98;8.73;;;;;;;8.17;100.00;101046.97;5086156;28;20038;-65
2021/05/23 06:17:03;;;;;;;27.98;9.15;;;;;;;8.14;100.00;101063.63;5091551;28;20028;-65
2021/05/23 06:19:29;;;;;;;28.27;9.18;;;;;;;8.11;100.00;101054.75;5092719;28;20027;-68
2021/05/23 06:21:54;;;;;;;25.13;8.10;;;;;;;8.12;100.00;101057.41;5093135;28;20827;-67
2021/05/23 06:24:19;;;;;;;30.67;9.18;;;;;;;8.15;100.00;101068.00;5092327;28;20467;-64
2021/05/23 06:26:45;;;;;;;27.75;8.70;;;;;;;8.17;100.00;101075.97;5092117;28;20409;-66
2021/05/23 06:29:10;;;;;;;35.80;8.85;;;;;;;8.24;100.00;101072.53;5092457;28;20024;-68
2021/05/23 06:31:36;;;;;;;29.08;8.73;;;;;;;8.27;100.00;101077.88;5091087;28;20118;-69
2021/05/23 06:34:01;;;;;;;28.15;9.20;;;;;;;8.37;100.00;101074.56;5091782;28;21324;-67
2021/05/23 06:36:26;;;;;;;29.75;8.73;;;;;;;8.52;100.00;101088.88;5093376;28;20467;-69
2021/05/23 06:38:52;;;;;;;26.08;8.32;;;;;;;8.63;100.00;101086.41;5091315;28;20024;-68
2021/05/23 06:41:17;;;;;;;26.27;8.30;;;;;;;8.77;100.00;101084.88;5092491;28;20032;-68
2021/05/23 06:43:43;;;;;;;23.50;8.00;;;;;;;8.85;100.00;101093.81;5091088;28;20024;-66
2021/05/23 06:46:08;;;;;;;25.42;8.20;;;;;;;8.84;96.09;101101.66;5090908;28;20024;-67
2021/05/23 06:48:34;;;;;;;25.17;8.15;;;;;;;8.86;96.91;101110.50;5092475;28;20081;-68
2021/05/23 06:51:00;;;;;;;25.13;7.85;;;;;;;8.96;93.93;101112.41;5092435;28;20032;-68
2021/05/23 06:53:25;;;;;;;24.63;7.45;;;;;;;8.95;92.74;101110.63;5090596;28;20490;-65
2021/05/23 06:55:50;;;;;;;27.13;8.63;;;;;;;9.09;97.78;101113.50;5098035;28;20036;-65
2021/05/23 06:58:16;;;;;;;26.92;8.65;;;;;;;9.18;93.03;101110.97;5099369;28;20004;-67
2021/05/23 07:00:41;;;;;;;27.98;8.82;;;;;;;9.40;94.54;101124.47;5099110;28;20028;-65
2021/05/23 07:03:07;;;;;;;27.27;8.65;;;;;;;9.47;92.36;101110.50;5098996;28;20428;-66
2021/05/23 07:05:32;;;;;;;25.90;8.73;;;;;;;9.38;89.62;101119.16;5097450;28;20024;-68
2021/05/23 07:07:58;;;;;;;26.08;9.02;;;;;;;9.32;89.68;101128.75;5098554;28;20451;-67
2021/05/23 07:10:23;;;;;;;25.75;9.07;;;;;;;9.25;91.54;101140.97;5103699;28;20047;-67
2021/05/23 07:12:48;;;;;;;25.50;9.13;;;;;;;9.15;88.87;101126.75;5111049;28;20110;-68
2021/05/23 07:15:14;;;;;;;26.17;8.57;;;;;;;9.06;88.26;101127.50;5108241;28;20024;-68
2021/05/23 07:17:39;;;;;;;24.40;9.15;;;;;;;9.16;91.75;101131.19;5109598;28;20016;-68
2021/05/23 07:20:06;;;;;;;27.20;9.50;;;;;;;9.23;87.53;101126.84;5109611;28;20407;-68
2021/05/23 07:22:31;;;;;;;28.15;10.75;;;;;;;9.24;90.53;101136.56;5107259;28;20056;-68
2021/05/23 07:24:57;;;;;;;28.48;9.98;;;;;;;9.36;89.28;101139.38;5110412;27;20042;-81
2021/05/23 07:27:22;;;;;;;26.20;9.90;;;;;;;9.43;87.16;101135.94;5107722;28;20032;-69
2021/05/23 07:29:48;;;;;;;24.67;8.07;;;;;;;9.54;84.73;101135.22;5111036;28;20019;-78
2021/05/23 07:32:13;;;;;;;25.48;8.48;;;;;;;9.55;86.16;101139.63;5108196;28;20147;-78
2021/05/23 07:34:38;;;;;;;25.23;7.25;;;;;;;9.54;80.45;101138.75;5109786;28;20030;-78
2021/05/23 07:37:04;;;;;;;22.63;7.10;;;;;;;9.49;81.39;101135.13;5109903;28;20419;-81
2021/05/23 07:39:29;;;;;;;23.45;6.70;;;;;;;9.50;79.78;101146.59;5108197;28;20024;-77
2021/05/23 07:41:55;;;;;;;24.02;6.28;;;;;;;9.42;78.77;101149.09;5110944;28;20019;-77
2021/05/23 07:44:20;;;;;;;21.33;6.30;;;;;;;9.64;79.96;101139.75;5107687;28;20459;-78
2021/05/23 07:46:47;;;;;;;23.33;6.28;;;;;;;9.82;79.73;101143.50;5110570;28;20019;-81
2021/05/23 07:49:13;;;;;;;21.77;5.90;;;;;;;9.97;75.75;101148.06;5108838;28;20042;-78
2021/05/23 07:51:38;;;;;;;23.20;5.97;;;;;;;9.99;75.15;101151.59;5109240;28;20047;-77
2021/05/23 07:54:04;;;;;;;24.38;6.20;;;;;;;10.03;72.35;101154.31;5109458;28;20020;-79
2021/05/23 07:56:29;;;;;;;24.42;6.07;;;;;;;10.05;73.85;101146.41;5108088;28;20028;-76
2021/05/23 07:58:55;;;;;;;21.83;5.35;;;;;;;10.04;73.67;101149.91;5110636;28;20016;-79
2021/05/23 08:01:20;;;;;;;23.45;5.90;;;;;;;10.18;76.03;101147.41;5107463;28;20024;-79
2021/05/23 08:03:46;;;;;;;22.60;5.95;;;;;;;10.16;71.51;101154.44;5110530;28;20122;-80
2021/05/23 08:06:12;;;;;;;21.17;6.13;;;;;;;10.21;72.61;101163.31;5106207;28;20023;-74
2021/05/23 08:08:38;;;;;;;23.50;5.63;;;;;;;10.51;71.78;101160.09;5104245;28;20107;-75
2021/05/23 08:11:03;;;;;;;20.58;5.22;;;;;;;10.74;68.42;101170.03;5107340;28;20106;-79
2021/05/23 08:13:29;;;;;;;22.02;5.60;;;;;;;10.68;66.83;101169.97;5103794;28;20066;-80
2021/05/23 08:15:56;;;;;;;20.85;5.22;;;;;;;10.69;66.88;101177.00;5107400;28;20449;-77
2021/05/23 08:18:28;;;;;;;21.40;5.40;;;;;;;10.86;68.52;101178.03;5104716;28;20074;-68
2021/05/23 08:21:01;;;;;;;20.65;5.38;;;;;;;10.80;65.93;101192.13;5106432;28;20447;-67
2021/05/23 08:23:27;;;;;;;21.73;5.90;;;;;;;10.73;66.81;101189.41;5103789;28;20031;-65
2021/05/23 08:25:53;;;;;;;19.88;6.18;;;;;;;10.68;68.64;101194.66;5106627;28;20031;-66
2021/05/23 08:28:19;;;;;;;20.50;5.93;;;;;;;10.80;66.83;101186.84;5104764;28;20026;-66
2021/05/23 08:30:45;;;;;;;23.00;6.00;;;;;;;10.86;66.58;101195.69;5105475;28;20032;-69
2021/05/23 08:33:11;;;;;;;22.65;5.38;;;;;;;11.07;67.90;101195.00;5096848;28;20031;-67
2021/05/23 08:35:37;;;;;;;20.50;5.50;;;;;;;11.13;64.54;101210.91;5093086;28;20028;-67
2021/05/23 08:38:02;;;;;;;19.92;5.47;;;;;;;11.25;67.57;101207.47;5095722;28;20058;-67
2021/05/23 08:40:28;;;;;;;21.85;5.68;;;;;;;11.38;64.57;101216.38;5094385;28;20036;-65
2021/05/23 08:42:54;;;;;;;22.67;5.63;;;;;;;11.34;65.03;101195.19;5093714;28;20063;-69
2021/05/23 08:45:19;;;;;;;21.42;5.45;;;;;;;11.45;65.96;101208.47;5095612;28;20390;-65
2021/05/23 08:47:45;;;;;;;20.52;5.18;;;;;;;11.37;63.28;101212.81;5093231;28;20107;-66
2021/05/23 08:50:12;;;;;;;22.23;5.55;;;;;;;11.42;64.26;101212.88;5093888;28;20132;-66
2021/05/23 08:52:37;;;;;;;22.30;5.20;;;;;;;11.33;63.06;101213.72;5095996;28;20535;-65
2021/05/23 08:55:04;;;;;;;18.48;4.85;;;;;;;11.09;61.54;101225.84;5091730;28;20024;-66
2021/05/23 08:57:30;;;;;;;20.27;4.75;;;;;;;10.98;62.57;101219.63;5096053;28;20061;-66
2021/05/23 08:59:55;;;;;;;21.30;5.07;;;;;;;11.06;64.00;101228.47;5088102;28;20080;-66
2021/05/23 09:02:21;;;;;;;22.73;5.30;;;;;;;11.09;64.57;101217.91;5093548;28;20028;-65
2021/05/23 09:04:51;;;;;;;20.30;4.20;;;;;;;11.25;59.78;101231.28;5091880;28;20108;-66
2021/05/23 09:07:17;;;;;;;21.13;4.43;;;;;;;11.12;59.09;101239.09;5093626;28;20110;-65
2021/05/23 09:09:44;;;;;;;20.77;4.82;;;;;;;11.04;63.28;101242.56;5092995;28;20111;-66
2021/05/23 09:12:13;;;;;;;19.90;4.53;;;;;;;11.13;60.09;101246.19;5093826;28;20028;-65
2021/05/23 09:14:43;;;;;;;19.40;4.50;;;;;;;11.18;60.04;101250.63;5092578;28;20020;-66
2021/05/23 09:17:22;;;;;;;19.65;4.20;;;;;;;11.66;62.74;101246.56;5092809;28;20032;-65
2021/05/23 09:19:49;;;;;;;21.67;4.30;;;;;;;11.85;58.02;101248.47;5093554;28;21180;-65
2021/05/23 09:22:20;;;;;;;18.25;3.90;;;;;;;12.18;56.12;101257.47;5094515;28;20052;-66
2021/05/23 09:24:51;;;;;;;18.98;4.07;;;;;;;12.13;55.31;101256.56;5092687;28;20077;-66
2021/05/23 09:27:17;;;;;;;19.85;4.55;;;;;;;12.18;55.07;101265.41;5092159;28;20077;-66
2021/05/23 09:29:42;;;;;;;18.48;3.67;;;;;;;12.12;51.73;101264.53;5089461;28;20028;-66
2021/05/23 09:32:18;;;;;;;17.83;3.78;;;;;;;11.91;53.39;101254.66;5093631;28;20466;-67
2021/05/23 09:34:47;;;;;;;17.13;3.97;;;;;;;12.22;56.53;101258.38;5091629;28;20026;-69
2021/05/23 09:37:14;;;;;;;19.27;4.00;;;;;;;12.28;54.59;101246.91;5092506;28;20055;-75
2021/05/23 09:39:40;;;;;;;18.10;3.70;;;;;;;12.14;52.51;101263.63;5090607;28;20471;-66
2021/05/23 09:42:11;;;;;;;18.45;3.70;;;;;;;12.49;55.72;101265.53;5087109;28;20519;-67
2021/05/23 09:44:36;;;;;;;16.23;3.50;;;;;;;12.24;52.94;101261.91;5093976;28;20104;-66
2021/05/23 09:47:11;;;;;;;15.93;3.60;;;;;;;12.44;53.39;101280.56;5091194;28;20095;-66
2021/05/23 09:49:56;;;;;;;19.40;4.00;;;;;;;12.82;52.27;101274.47;5102061;28;20059;-66
2021/05/23 09:52:34;;;;;;;18.08;3.75;;;;;;;13.33;51.75;101265.66;5097720;28;20126;-67
2021/05/23 09:54:59;;;;;;;18.77;3.65;;;;;;;14.15;48.21;101266.41;5100168;28;20028;-67
2021/05/23 09:57:26;;;;;;;17.05;3.55;;;;;;;15.28;46.33;101287.06;5105566;28;20027;-66
2021/05/23 10:00:08;;;;;;;14.32;3.20;;;;;;;15.84;42.92;101268.81;5102039;28;20048;-66
2021/05/23 10:02:59;;;;;;;14.85;3.03;;;;;;;15.77;42.72;101257.31;5101017;28;20032;-68
2021/05/23 10:05:26;;;;;;;12.88;3.22;;;;;;;15.89;42.32;101263.41;5097951;28;20479;-67
2021/05/23 10:07:51;;;;;;;16.33;3.30;;;;;;;16.27;43.11;101276.31;5104001;28;20408;-73
2021/05/23 10:10:18;;;;;;;16.90;3.38;;;;;;;16.42;40.41;101279.69;5102195;28;20031;-75
2021/05/23 10:12:43;;;;;;;16.40;3.25;;;;;;;16.65;40.32;101282.94;5104355;28;20493;-80
2021/05/23 10:15:11;;;;;;;15.27;3.40;;;;;;;15.25;40.09;101280.00;5102822;28;20024;-69
2021/05/23 10:17:40;;;;;;;16.55;3.20;;;;;;;14.06;42.41;101290.38;5103719;28;20024;-73
2021/05/23 10:20:09;;;;;;;17.48;3.55;;;;;;;13.88;45.63;101286.88;5102872;28;20028;-75
2021/05/23 10:22:36;;;;;;;17.98;3.35;;;;;;;15.16;40.62;101299.59;5102991;28;20066;-73
2021/05/23 10:25:07;;;;;;;13.10;3.00;;;;;;;16.01;40.52;101298.84;5103671;28;20039;-74
2021/05/23 10:27:36;;;;;;;17.65;3.20;;;;;;;16.39;38.53;101294.81;5102829;28;20020;-71
2021/05/23 10:30:04;;;;;;;17.70;3.38;;;;;;;17.35;40.13;101285.44;5101003;28;20043;-73
2021/05/23 10:32:32;;;;;;;16.02;2.92;;;;;;;17.74;35.76;101296.34;5102420;28;20040;-74
2021/05/23 10:35:16;;;;;;;15.70;2.88;;;;;;;17.69;36.14;101306.28;5104106;28;20031;-70
2021/05/23 10:37:43;;;;;;;14.60;3.08;;;;;;;17.13;33.34;101292.06;5104469;28;20061;-68
2021/05/23 10:40:27;;;;;;;16.00;3.40;;;;;;;17.41;36.08;101295.16;5100815;28;20027;-68
2021/05/23 10:42:55;;;;;;;16.33;3.58;;;;;;;17.55;36.91;101292.25;5098412;28;20020;-67
2021/05/23 10:45:32;;;;;;;18.05;3.63;;;;;;;17.33;36.46;101292.63;5103086;28;20020;-67
2021/05/23 10:48:09;;;;;;;15.23;3.40;;;;;;;16.98;37.62;101293.16;5102276;28;20107;-67
2021/05/23 10:50:37;;;;;;;18.35;3.22;;;;;;;17.94;36.40;101316.53;5104731;28;20526;-67
2021/05/23 10:53:05;;;;;;;17.75;3.33;;;;;;;17.59;35.70;101328.69;5101720;28;20106;-68
2021/05/23 10:55:31;;;;;;;14.70;3.40;;;;;;;16.70;38.69;101320.22;5104252;28;20340;-67
2021/05/23 10:57:57;;;;;;;17.70;3.50;;;;;;;16.36;39.53;101304.66;5102328;28;20027;-68
2021/05/23 11:00:35;;;;;;;19.52;3.65;;;;;;;16.60;41.12;101308.81;5102985;28;20527;-68
2021/05/23 11:03:12;;;;;;;17.30;3.40;;;;;;;17.37;38.50;101301.44;5101620;28;20032;-67
2021/05/23 11:05:38;;;;;;;16.27;3.30;;;;;;;15.85;39.21;101318.56;5101807;28;20036;-67
2021/05/23 11:08:07;;;;;;;19.40;4.00;;;;;;;15.22;41.92;101308.41;5104510;28;20419;-68
2021/05/23 11:10:43;;;;;;;16.23;3.65;;;;;;;14.66;42.51;101314.09;5096420;28;20032;-67